createdAt,value
2018-11-27T00:00:16.807Z,5.18
2018-11-27T00:02:45.556Z,5.20
2018-11-27T00:05:14.504Z,5.18
2018-11-27T00:07:43.759Z,5.16
2018-11-27T00:10:13.434Z,5.15
2018-11-27T00:12:42.492Z,5.18
2018-11-27T00:15:13.060Z,5.13
2018-11-27T00:17:42.144Z,5.10
2018-11-27T00:20:12.479Z,5.16
2018-11-27T00:22:42.359Z,5.15
2018-11-27T00:25:15.224Z,5.13
2018-11-27T00:27:45.237Z,5.17
2018-11-27T00:30:19.698Z,5.16
2018-11-27T00:32:48.900Z,5.09
2018-11-27T00:35:19.955Z,5.02
2018-11-27T00:37:48.841Z,5.06
2018-11-27T00:40:21.896Z,5.10
2018-11-27T00:42:51.437Z,4.98
2018-11-27T00:45:21.493Z,4.87
2018-11-27T00:47:51.285Z,4.89
2018-11-27T00:50:24.967Z,4.93
2018-11-27T00:52:53.762Z,4.96
2018-11-27T00:55:22.897Z,4.91
2018-11-27T00:57:53.524Z,4.88
2018-11-27T01:00:25.290Z,4.84
2018-11-27T01:02:54.485Z,4.84
2018-11-27T01:05:25.005Z,4.75
2018-11-27T01:07:55.304Z,4.65
2018-11-27T01:10:27.804Z,4.53
2018-11-27T01:12:57.166Z,4.53
2018-11-27T01:15:26.725Z,4.58
2018-11-27T01:17:57.940Z,4.36
2018-11-27T01:20:28.090Z,4.41
2018-11-27T01:22:58.410Z,4.51
2018-11-27T01:25:28.665Z,4.58
2018-11-27T01:27:57.624Z,4.58
2018-11-27T01:30:26.784Z,4.58
2018-11-27T01:32:56.604Z,4.60
2018-11-27T01:35:25.792Z,4.62
2018-11-27T01:37:55.853Z,4.48
2018-11-27T01:40:28.110Z,4.48
2018-11-27T01:42:58.062Z,4.41
2018-11-27T01:45:27.327Z,4.35
2018-11-27T01:47:56.126Z,4.36
2018-11-27T01:50:26.464Z,4.42
2018-11-27T01:52:55.249Z,4.44
2018-11-27T01:55:24.128Z,4.48
2018-11-27T01:57:53.186Z,4.50
2018-11-27T02:00:25.812Z,4.51
2018-11-27T02:02:55.444Z,4.52
2018-11-27T02:05:25.208Z,4.55
2018-11-27T02:07:54.816Z,4.56
2018-11-27T02:10:24.164Z,4.52
2018-11-27T02:12:54.016Z,4.49
2018-11-27T02:15:28.176Z,4.51
2018-11-27T02:17:57.156Z,4.53
2018-11-27T02:20:26.426Z,4.50
2018-11-27T02:22:55.507Z,4.43
2018-11-27T02:25:27.584Z,4.40
2018-11-27T02:27:56.884Z,4.38
2018-11-27T02:30:26.833Z,4.38
2018-11-27T02:32:55.499Z,4.39
2018-11-27T02:35:25.434Z,4.40
2018-11-27T02:37:55.833Z,4.39
2018-11-27T02:40:25.608Z,4.39
2018-11-27T02:42:54.535Z,4.40
2018-11-27T02:45:25.086Z,4.37
2018-11-27T02:47:54.803Z,4.22
2018-11-27T02:50:25.146Z,4.24
2018-11-27T02:52:54.044Z,4.25
2018-11-27T02:55:24.342Z,4.13
2018-11-27T02:57:53.642Z,4.17
2018-11-27T03:00:25.045Z,4.20
2018-11-27T03:02:54.086Z,4.21
2018-11-27T03:05:26.775Z,4.15
2018-11-27T03:07:55.948Z,4.12
2018-11-27T03:10:25.091Z,4.09
2018-11-27T03:12:54.039Z,4.11
2018-11-27T03:15:22.932Z,4.13
2018-11-27T03:17:51.889Z,4.09
2018-11-27T03:20:20.730Z,4.05
2018-11-27T03:22:49.665Z,4.02
2018-11-27T03:25:19.583Z,3.99
2018-11-27T03:27:49.942Z,4.01
2018-11-27T03:30:21.600Z,4.00
2018-11-27T03:32:50.482Z,3.97
2018-11-27T03:35:23.447Z,3.82
2018-11-27T03:37:52.585Z,3.82
2018-11-27T03:40:23.512Z,3.80
2018-11-27T03:42:52.463Z,3.75
2018-11-27T03:45:22.071Z,3.74
2018-11-27T03:47:51.210Z,3.63
2018-11-27T03:50:26.486Z,3.62
2018-11-27T03:52:55.406Z,3.64
2018-11-27T03:55:24.408Z,3.60
2018-11-27T03:57:53.761Z,3.60
2018-11-27T04:00:27.445Z,3.52
2018-11-27T04:03:12.442Z,3.48
2018-11-27T04:05:42.162Z,3.55
2018-11-27T04:08:11.947Z,3.52
2018-11-27T04:10:42.015Z,3.54
2018-11-27T04:13:10.654Z,3.54
2018-11-27T04:15:40.199Z,3.51
2018-11-27T04:18:09.192Z,3.45
2018-11-27T04:20:38.053Z,3.37
2018-11-27T04:23:06.905Z,3.39
2018-11-27T04:25:36.652Z,3.39
2018-11-27T04:28:06.802Z,3.18
2018-11-27T04:30:35.786Z,3.21
2018-11-27T04:33:05.076Z,3.23
2018-11-27T04:35:34.046Z,3.13
2018-11-27T04:38:03.164Z,3.17
2018-11-27T04:40:31.933Z,3.17
2018-11-27T04:43:00.749Z,3.17
2018-11-27T04:45:29.531Z,3.03
2018-11-27T04:47:58.304Z,3.05
2018-11-27T04:50:27.157Z,3.08
2018-11-27T04:52:55.884Z,3.07
2018-11-27T04:55:24.897Z,3.07
2018-11-27T04:57:53.961Z,3.07
2018-11-27T05:00:23.870Z,2.97
2018-11-27T05:02:52.721Z,2.96
2018-11-27T05:05:21.696Z,3.02
2018-11-27T05:07:50.814Z,2.98
2018-11-27T05:10:23.123Z,2.99
2018-11-27T05:12:52.188Z,3.00
2018-11-27T05:15:23.343Z,3.02
2018-11-27T05:17:53.798Z,2.98
2018-11-27T05:20:22.553Z,2.95
2018-11-27T05:22:51.409Z,2.94
2018-11-27T05:25:21.108Z,2.93
2018-11-27T05:27:52.022Z,2.99
2018-11-27T05:30:21.997Z,3.02
2018-11-27T05:32:51.027Z,3.06
2018-11-27T05:35:21.930Z,2.95
2018-11-27T05:37:51.149Z,2.92
2018-11-27T05:40:23.824Z,2.81
2018-11-27T05:42:54.146Z,2.84
2018-11-27T05:45:23.821Z,2.78
2018-11-27T05:47:52.831Z,2.68
2018-11-27T05:50:21.626Z,2.72
2018-11-27T05:52:50.481Z,2.79
2018-11-27T05:55:19.368Z,2.84
2018-11-27T05:57:50.587Z,2.82
2018-11-27T06:00:20.541Z,2.75
2018-11-27T06:02:50.744Z,2.75
2018-11-27T06:05:21.013Z,2.79
2018-11-27T06:07:49.928Z,2.82
2018-11-27T06:10:19.846Z,2.78
2018-11-27T06:12:48.717Z,2.74
2018-11-27T06:15:18.657Z,2.70
2018-11-27T06:17:48.819Z,2.72
2018-11-27T06:20:18.640Z,2.68
2018-11-27T06:22:49.037Z,2.70
2018-11-27T06:25:20.055Z,2.72
2018-11-27T06:27:50.345Z,2.63
2018-11-27T06:30:22.655Z,2.63
2018-11-27T06:32:52.405Z,2.67
2018-11-27T06:35:25.621Z,2.68
2018-11-27T06:37:54.534Z,2.68
2018-11-27T06:40:27.017Z,2.66
2018-11-27T06:42:56.913Z,2.65
2018-11-27T06:45:26.049Z,2.61
2018-11-27T06:47:55.150Z,2.54
2018-11-27T06:50:25.012Z,2.47
2018-11-27T06:52:54.128Z,2.51
2018-11-27T06:55:23.803Z,2.54
2018-11-27T06:57:52.802Z,2.55
2018-11-27T07:00:26.312Z,2.58
2018-11-27T07:02:55.608Z,2.56
2018-11-27T07:05:24.448Z,2.52
2018-11-27T07:07:53.762Z,2.46
2018-11-27T07:10:28.719Z,2.48
2018-11-27T07:13:06.008Z,2.53
2018-11-27T07:15:34.904Z,2.52
2018-11-27T07:18:03.816Z,2.55
2018-11-27T07:20:34.742Z,2.54
2018-11-27T07:23:03.710Z,2.57
2018-11-27T07:25:32.800Z,2.59
2018-11-27T07:28:01.718Z,2.59
2018-11-27T07:30:30.486Z,2.60
2018-11-27T07:32:59.355Z,2.60
2018-11-27T07:35:28.156Z,2.60
2018-11-27T07:37:57.013Z,2.59
2018-11-27T07:40:28.477Z,2.57
2018-11-27T07:43:02.015Z,2.56
2018-11-27T07:45:30.858Z,2.57
2018-11-27T07:47:59.938Z,2.58
2018-11-27T07:50:29.002Z,2.59
2018-11-27T07:52:59.168Z,2.62
2018-11-27T07:55:28.114Z,2.63
2018-11-27T07:57:57.005Z,2.63
2018-11-27T08:00:28.098Z,2.63
2018-11-27T08:02:58.270Z,2.63
2018-11-27T08:05:34.404Z,2.58
2018-11-27T08:08:03.950Z,2.57
2018-11-27T08:10:33.521Z,2.57
2018-11-27T08:13:02.326Z,2.56
2018-11-27T08:15:31.991Z,2.53
2018-11-27T08:18:00.936Z,2.49
2018-11-27T08:20:33.820Z,2.49
2018-11-27T08:23:02.734Z,2.48
2018-11-27T08:25:31.698Z,2.50
2018-11-27T08:28:00.907Z,2.50
2018-11-27T08:30:29.902Z,2.55
2018-11-27T08:32:59.228Z,2.49
2018-11-27T08:35:30.304Z,2.30
2018-11-27T08:38:00.209Z,2.26
2018-11-27T08:40:31.254Z,2.39
2018-11-27T08:43:00.172Z,2.23
2018-11-27T08:45:29.343Z,2.20
2018-11-27T08:47:58.214Z,2.35
2018-11-27T08:50:28.876Z,2.35
2018-11-27T08:53:01.290Z,2.48
2018-11-27T08:55:35.073Z,2.59
2018-11-27T08:58:05.745Z,2.63
2018-11-27T09:00:34.801Z,2.71
2018-11-27T09:03:03.964Z,2.66
2018-11-27T09:05:32.815Z,2.57
2018-11-27T09:08:01.697Z,2.59
2018-11-27T09:10:30.497Z,2.53
2018-11-27T09:13:00.425Z,2.61
2018-11-27T09:15:29.164Z,2.71
2018-11-27T09:18:00.614Z,2.76
2018-11-27T09:20:29.791Z,2.86
2018-11-27T09:22:59.113Z,2.91
2018-11-27T09:25:27.929Z,2.93
2018-11-27T09:27:56.811Z,2.92
2018-11-27T09:30:26.694Z,2.87
2018-11-27T09:32:56.342Z,2.89
2018-11-27T09:35:25.310Z,2.94
2018-11-27T09:37:54.374Z,2.92
2018-11-27T09:40:24.257Z,2.88
2018-11-27T09:42:53.088Z,2.88
2018-11-27T09:45:23.153Z,2.90
2018-11-27T09:47:54.374Z,2.98
2018-11-27T09:50:23.316Z,3.00
2018-11-27T09:52:52.271Z,3.03
2018-11-27T09:55:29.009Z,3.06
2018-11-27T09:57:59.244Z,3.06
2018-11-27T10:00:30.450Z,3.08
2018-11-27T10:03:02.881Z,3.13
2018-11-27T10:05:31.692Z,2.99
2018-11-27T10:08:00.756Z,2.99
2018-11-27T10:10:32.103Z,3.04
2018-11-27T10:13:01.248Z,3.13
2018-11-27T10:15:30.777Z,3.15
2018-11-27T10:18:02.770Z,3.16
2018-11-27T10:20:38.338Z,3.02
2018-11-27T10:23:10.918Z,3.10
2018-11-27T10:25:39.827Z,3.16
2018-11-27T10:28:09.176Z,3.23
2018-11-27T10:30:38.274Z,3.25
2018-11-27T10:33:10.455Z,3.32
2018-11-27T10:35:42.870Z,3.36
2018-11-27T10:38:11.931Z,3.21
2018-11-27T10:40:40.850Z,3.23
2018-11-27T10:43:10.464Z,3.27
2018-11-27T10:45:39.783Z,3.26
2018-11-27T10:48:08.666Z,3.31
2018-11-27T10:50:37.653Z,3.25
2018-11-27T10:53:09.229Z,3.30
2018-11-27T10:55:38.721Z,3.30
2018-11-27T10:58:08.636Z,3.24
2018-11-27T11:00:43.118Z,3.17
2018-11-27T11:03:42.661Z,3.13
2018-11-27T11:06:17.797Z,3.28
2018-11-27T11:08:47.368Z,3.06
2018-11-27T11:11:19.496Z,3.12
2018-11-27T11:13:49.676Z,3.22
2018-11-27T11:16:18.835Z,3.27
2018-11-27T11:18:51.449Z,3.34
2018-11-27T11:21:20.909Z,3.41
2018-11-27T11:23:49.832Z,3.15
2018-11-27T11:26:18.690Z,3.14
2018-11-27T11:28:47.946Z,3.20
2018-11-27T11:31:17.420Z,3.24
2018-11-27T11:33:46.603Z,3.28
2018-11-27T11:36:16.113Z,3.26
2018-11-27T11:38:45.567Z,3.40
2018-11-27T11:41:14.969Z,3.47
2018-11-27T11:43:43.778Z,3.54
2018-11-27T11:46:12.586Z,3.56
2018-11-27T11:48:41.797Z,3.43
2018-11-27T11:51:11.475Z,3.45
2018-11-27T11:53:41.017Z,3.35
2018-11-27T11:56:11.469Z,3.26
2018-11-27T11:58:42.040Z,3.37
2018-11-27T12:01:15.113Z,3.53
2018-11-27T12:03:44.333Z,3.65
2018-11-27T12:06:17.781Z,3.73
2018-11-27T12:08:46.698Z,3.62
2018-11-27T12:13:54.878Z,3.39
2018-11-27T12:16:26.256Z,3.44
2018-11-27T12:18:56.841Z,3.58
2018-11-27T12:21:25.772Z,3.68
2018-11-27T12:23:58.451Z,3.84
2018-11-27T12:26:28.142Z,3.93
2018-11-27T12:28:57.270Z,4.04
2018-11-27T12:31:26.687Z,4.09
2018-11-27T12:33:55.705Z,4.10
2018-11-27T12:36:24.868Z,4.07
2018-11-27T12:38:53.848Z,3.87
2018-11-27T12:41:23.395Z,3.80
2018-11-27T12:43:52.525Z,3.82
2018-11-27T12:46:22.160Z,3.74
2018-11-27T12:48:51.449Z,3.81
2018-11-27T12:51:21.598Z,3.94
2018-11-27T12:53:50.787Z,4.06
2018-11-27T12:56:19.770Z,4.01
2018-11-27T12:58:48.890Z,4.09
2018-11-27T13:01:18.534Z,4.20
2018-11-27T13:03:47.706Z,4.34
2018-11-27T13:06:17.214Z,4.39
2018-11-27T13:08:46.495Z,4.31
2018-11-27T13:11:20.234Z,4.13
2018-11-27T13:13:49.287Z,4.07
2018-11-27T13:16:18.620Z,4.15
2018-11-27T13:18:47.665Z,4.17
2018-11-27T13:21:16.667Z,4.24
2018-11-27T13:23:45.939Z,4.26
2018-11-27T13:26:14.981Z,4.20
2018-11-27T13:28:43.890Z,4.22
2018-11-27T13:31:12.792Z,4.20
2018-11-27T13:33:55.725Z,4.21
2018-11-27T13:36:24.405Z,4.13
2018-11-27T13:38:53.240Z,4.12
2018-11-27T13:41:22.189Z,4.03
2018-11-27T13:43:51.220Z,4.06
2018-11-27T13:46:20.235Z,4.02
2018-11-27T13:48:50.343Z,3.98
2018-11-27T13:51:19.190Z,3.98
2018-11-27T13:53:48.029Z,3.96
2018-11-27T13:56:16.881Z,4.01
2018-11-27T13:58:45.753Z,3.92
2018-11-27T14:01:14.816Z,3.95
2018-11-27T14:03:43.642Z,3.96
2018-11-27T14:06:13.027Z,3.76
2018-11-27T14:08:42.978Z,3.74
2018-11-27T14:11:11.828Z,3.78
2018-11-27T14:13:40.729Z,3.77
2018-11-27T14:16:10.738Z,3.75
2018-11-27T14:18:39.897Z,3.75
2018-11-27T14:21:08.802Z,3.78
2018-11-27T14:23:37.810Z,3.71
2018-11-27T14:26:07.096Z,3.60
2018-11-27T14:28:35.893Z,3.54
2018-11-27T14:31:04.854Z,3.48
2018-11-27T14:33:33.852Z,3.50
2018-11-27T14:36:02.847Z,3.50
2018-11-27T14:38:31.607Z,3.42
2018-11-27T14:41:00.630Z,3.35
2018-11-27T14:43:29.689Z,3.35
2018-11-27T14:45:58.592Z,3.39
2018-11-27T14:48:28.148Z,3.42
2018-11-27T14:50:57.072Z,3.43
2018-11-27T14:53:25.966Z,3.31
2018-11-27T14:55:55.682Z,3.27
2018-11-27T14:58:24.437Z,3.25
2018-11-27T15:00:53.415Z,3.22
2018-11-27T15:03:22.395Z,3.18
2018-11-27T15:05:51.319Z,3.16
2018-11-27T15:08:20.113Z,3.12
2018-11-27T15:10:49.601Z,3.15
2018-11-27T15:13:18.894Z,3.14
2018-11-27T15:15:47.761Z,3.15
2018-11-27T15:18:16.495Z,3.06
2018-11-27T15:20:45.248Z,3.06
2018-11-27T15:23:14.936Z,3.00
2018-11-27T15:25:43.646Z,2.96
2018-11-27T15:28:12.633Z,3.02
2018-11-27T15:30:41.636Z,2.94
2018-11-27T15:33:10.622Z,2.91
2018-11-27T15:35:39.963Z,2.86
2018-11-27T15:38:09.271Z,2.84
2018-11-27T15:40:39.633Z,2.79
2018-11-27T15:43:09.062Z,2.80
2018-11-27T15:45:38.037Z,2.78
2018-11-27T15:48:08.855Z,2.77
2018-11-27T15:50:38.679Z,2.73
2018-11-27T15:53:08.434Z,2.76
2018-11-27T15:55:39.757Z,2.76
2018-11-27T15:58:11.759Z,2.73
2018-11-27T16:00:41.341Z,2.71
2018-11-27T16:03:11.542Z,2.63
2018-11-27T16:05:45.820Z,2.56
2018-11-27T16:08:15.150Z,2.60
2018-11-27T16:10:45.051Z,2.59
2018-11-27T16:13:14.832Z,2.50
2018-11-27T16:15:44.391Z,2.41
2018-11-27T16:18:13.883Z,2.36
2018-11-27T16:20:43.229Z,2.36
2018-11-27T16:23:12.075Z,2.26
2018-11-27T16:25:40.945Z,2.27
2018-11-27T16:28:09.824Z,2.38
2018-11-27T16:30:38.896Z,2.42
2018-11-27T16:33:08.777Z,2.40
2018-11-27T16:35:37.945Z,2.37
2018-11-27T16:38:07.394Z,2.24
2018-11-27T16:40:38.215Z,2.17
2018-11-27T16:43:07.854Z,2.12
2018-11-27T16:45:37.056Z,2.18
2018-11-27T16:48:07.844Z,2.19
2018-11-27T16:50:38.555Z,2.22
2018-11-27T16:53:09.801Z,2.20
2018-11-27T16:55:38.757Z,2.21
2018-11-27T16:58:15.989Z,2.27
2018-11-27T17:00:44.769Z,2.34
2018-11-27T17:03:13.538Z,2.28
2018-11-27T17:05:44.335Z,2.26
2018-11-27T17:08:13.110Z,2.24
2018-11-27T17:10:43.310Z,2.25
2018-11-27T17:13:13.074Z,2.18
2018-11-27T17:15:41.968Z,2.12
2018-11-27T17:18:11.357Z,2.16
2018-11-27T17:20:41.783Z,2.15
2018-11-27T17:23:12.464Z,2.15
2018-11-27T17:25:42.564Z,2.20
2018-11-27T17:28:15.061Z,2.22
2018-11-27T17:30:55.158Z,2.22
2018-11-27T17:33:34.194Z,2.18
2018-11-27T17:36:04.016Z,2.07
2018-11-27T17:38:34.078Z,2.06
2018-11-27T17:41:02.991Z,2.01
2018-11-27T17:43:31.598Z,1.98
2018-11-27T17:46:00.324Z,2.03
2018-11-27T17:48:29.243Z,2.02
2018-11-27T17:50:58.066Z,1.89
2018-11-27T17:53:26.926Z,1.92
2018-11-27T17:55:57.317Z,1.99
2018-11-27T17:58:26.581Z,2.01
2018-11-27T18:00:55.612Z,1.89
2018-11-27T18:03:24.625Z,1.92
2018-11-27T18:05:53.501Z,2.04
2018-11-27T18:08:24.959Z,2.06
2018-11-27T18:10:53.872Z,2.06
2018-11-27T18:13:22.718Z,1.97
2018-11-27T18:15:51.662Z,1.98
2018-11-27T18:18:20.454Z,2.02
2018-11-27T18:20:49.547Z,2.02
2018-11-27T18:23:18.949Z,2.01
2018-11-27T18:25:48.010Z,2.07
2018-11-27T18:28:16.984Z,2.01
2018-11-27T18:30:46.796Z,2.04
2018-11-27T18:33:15.537Z,2.01
2018-11-27T18:35:44.227Z,1.99
2018-11-27T18:38:13.263Z,1.96
2018-11-27T18:40:42.141Z,2.01
2018-11-27T18:43:11.268Z,2.03
2018-11-27T18:45:40.139Z,2.04
2018-11-27T18:48:09.306Z,2.02
2018-11-27T18:50:38.143Z,1.95
2018-11-27T18:53:07.466Z,1.91
2018-11-27T18:55:36.595Z,1.90
2018-11-27T18:58:05.826Z,1.81
2018-11-27T19:00:35.254Z,1.77
2018-11-27T19:03:04.207Z,1.76
2018-11-27T19:05:33.027Z,1.78
2018-11-27T19:08:01.805Z,1.84
2018-11-27T19:10:32.294Z,1.81
2018-11-27T19:13:01.773Z,1.78
2018-11-27T19:15:38.403Z,1.77
2018-11-27T19:18:17.445Z,1.70
2018-11-27T19:20:46.929Z,1.69
2018-11-27T19:23:16.083Z,1.75
2018-11-27T19:25:44.963Z,1.84
2018-11-27T19:29:43.259Z,1.78
2018-11-27T19:32:12.114Z,1.70
2018-11-27T19:34:41.830Z,1.67
2018-11-27T19:37:10.818Z,1.67
2018-11-27T19:39:39.676Z,1.64
2018-11-27T19:42:09.485Z,1.56
2018-11-27T19:44:38.398Z,1.55
2018-11-27T19:47:07.304Z,1.57
2018-11-27T19:49:36.120Z,1.56
2018-11-27T19:52:04.920Z,1.55
2018-11-27T19:54:34.426Z,1.58
2018-11-27T19:57:03.384Z,1.65
2018-11-27T19:59:32.501Z,1.73
2018-11-27T20:02:01.524Z,1.79
2018-11-27T20:04:30.517Z,1.80
2018-11-27T20:07:07.657Z,1.71
2018-11-27T20:09:36.717Z,1.73
2018-11-27T20:12:06.109Z,1.66
2018-11-27T20:14:35.255Z,1.51
2018-11-27T20:17:04.332Z,1.42
2018-11-27T20:19:33.152Z,1.34
2018-11-27T20:22:02.075Z,1.29
2018-11-27T20:24:31.212Z,1.28
2018-11-27T20:27:00.117Z,1.23
2018-11-27T20:29:29.469Z,1.13
2018-11-27T20:31:58.635Z,1.02
2018-11-27T20:34:27.840Z,1.05
2018-11-27T20:36:57.446Z,1.04
2018-11-27T20:39:26.518Z,1.11
2018-11-27T20:41:55.337Z,1.08
2018-11-27T20:44:25.883Z,1.12
2018-11-27T20:46:54.933Z,1.14
2018-11-27T20:49:24.483Z,1.08
2018-11-27T20:51:53.474Z,1.10
2018-11-27T20:54:22.735Z,1.09
2018-11-27T20:56:51.781Z,1.06
2018-11-27T20:59:21.354Z,1.06
2018-11-27T21:01:50.263Z,1.05
2018-11-27T21:04:19.333Z,1.06
2018-11-27T21:06:48.423Z,1.04
2018-11-27T21:09:17.315Z,1.04
2018-11-27T21:11:46.212Z,1.05
2018-11-27T21:14:15.187Z,1.09
2018-11-27T21:16:44.242Z,1.03
2018-11-27T21:19:13.629Z,1.01
2018-11-27T21:21:42.831Z,0.94
2018-11-27T21:24:12.070Z,0.96
2018-11-27T21:26:41.564Z,0.96
2018-11-27T21:29:10.543Z,0.99
2018-11-27T21:31:39.354Z,1.01
2018-11-27T21:34:08.303Z,1.04
2018-11-27T21:36:37.310Z,0.94
2018-11-27T21:39:09.057Z,0.85
2018-11-27T21:41:38.050Z,0.90
2018-11-27T21:44:06.912Z,0.92
2018-11-27T21:46:35.908Z,0.88
2018-11-27T21:49:04.907Z,0.88
2018-11-27T21:51:33.995Z,0.90
2018-11-27T21:54:02.887Z,0.94
2018-11-27T21:56:31.788Z,0.90
2018-11-27T21:59:00.893Z,0.90
2018-11-27T22:01:29.984Z,0.82
2018-11-27T22:03:59.090Z,0.78
2018-11-27T22:06:27.958Z,0.77
2018-11-27T22:08:56.912Z,0.74
2018-11-27T22:11:26.045Z,0.75
2018-11-27T22:13:55.325Z,0.62
2018-11-27T22:16:24.940Z,0.58
2018-11-27T22:18:54.053Z,0.64
2018-11-27T22:21:23.132Z,0.65
2018-11-27T22:23:52.097Z,0.61
2018-11-27T22:26:20.910Z,0.63
2018-11-27T22:28:49.677Z,0.64
2018-11-27T22:31:18.494Z,0.57
2018-11-27T22:33:47.370Z,0.56
2018-11-27T22:36:16.493Z,0.49
2018-11-27T22:38:45.381Z,0.45
2018-11-27T22:41:15.003Z,0.43
2018-11-27T22:43:43.861Z,0.42
2018-11-27T22:46:15.113Z,0.46
2018-11-27T22:48:45.015Z,0.38
2018-11-27T22:51:14.117Z,0.39
2018-11-27T22:53:42.959Z,0.31
2018-11-27T22:56:11.884Z,0.27
2018-11-27T22:58:41.321Z,0.31
2018-11-27T23:01:10.507Z,0.34
2018-11-27T23:03:39.559Z,0.37
2018-11-27T23:06:08.664Z,0.40
2018-11-27T23:08:37.885Z,0.44
2018-11-27T23:11:07.179Z,0.36
2018-11-27T23:13:36.271Z,0.34
2018-11-27T23:16:05.115Z,0.34
2018-11-27T23:18:33.903Z,0.36
2018-11-27T23:21:02.926Z,0.40
2018-11-27T23:23:31.836Z,0.40
2018-11-27T23:26:01.719Z,0.39
2018-11-27T23:28:30.512Z,0.39
2018-11-27T23:30:59.912Z,0.30
2018-11-27T23:33:29.443Z,0.28
2018-11-27T23:35:58.302Z,0.28
2018-11-27T23:38:27.104Z,0.30
2018-11-27T23:40:55.980Z,0.32
2018-11-27T23:43:25.029Z,0.32
2018-11-27T23:45:54.083Z,0.33
2018-11-27T23:48:22.949Z,0.30
2018-11-27T23:50:51.906Z,0.28
2018-11-27T23:53:20.951Z,0.24
2018-11-27T23:55:49.806Z,0.15
2018-11-27T23:58:18.590Z,0.20
